createdAt,value
2018-04-28T00:00:35.536Z,99.99
2018-04-28T00:01:45.539Z,99.99
2018-04-28T00:02:55.545Z,99.99
2018-04-28T00:04:05.012Z,99.99
2018-04-28T00:05:14.490Z,99.29
2018-04-28T00:06:24.501Z,98.82
2018-04-28T00:07:34.241Z,98.72
2018-04-28T00:08:43.980Z,98.16
2018-04-28T00:09:53.984Z,97.78
2018-04-28T00:11:03.459Z,98.82
2018-04-28T00:12:13.206Z,97.87
2018-04-28T00:13:23.212Z,97.78
2018-04-28T00:14:32.959Z,99.2
2018-04-28T00:15:42.696Z,99.1
2018-04-28T00:16:52.441Z,99.29
2018-04-28T00:18:02.218Z,98.72
2018-04-28T00:19:11.958Z,98.91
2018-04-28T00:20:21.963Z,98.44
2018-04-28T00:21:31.969Z,99.29
2018-04-28T00:22:41.978Z,98.91
2018-04-28T00:23:51.988Z,99.67
2018-04-28T00:25:01.996Z,99.67
2018-04-28T00:26:11.736Z,99.2
2018-04-28T00:27:21.477Z,98.82
2018-04-28T00:28:31.511Z,98.35
2018-04-28T00:29:41.512Z,97.68
2018-04-28T00:30:50.980Z,97.78
2018-04-28T00:32:00.986Z,97.78
2018-04-28T00:33:10.999Z,97.68
2018-04-28T00:34:20.470Z,97.11
2018-04-28T00:35:30.235Z,97.49
2018-04-28T00:36:40.241Z,97.11
2018-04-28T00:37:50.244Z,97.35
2018-04-28T00:38:59.716Z,97.3
2018-04-28T00:40:09.455Z,96.83
2018-04-28T00:41:19.190Z,96.97
2018-04-28T00:42:28.661Z,97.06
2018-04-28T00:43:38.400Z,97.63
2018-04-28T00:44:48.406Z,96.97
2018-04-28T00:45:58.139Z,96.97
2018-04-28T00:47:07.610Z,97.92
2018-04-28T00:48:17.419Z,98.11
2018-04-28T00:49:27.174Z,98.11
2018-04-28T00:50:37.180Z,98.2
2018-04-28T00:51:47.205Z,98.3
2018-04-28T00:52:57.256Z,97.73
2018-04-28T00:54:06.459Z,97.44
2018-04-28T00:55:16.200Z,97.06
2018-04-28T00:56:26.206Z,97.82
2018-04-28T00:57:36.217Z,97.92
2018-04-28T00:58:46.219Z,98.11
2018-04-28T00:59:56.223Z,98.39
2018-04-28T01:01:05.695Z,99.24
2018-04-28T01:02:15.699Z,99.99
2018-04-28T01:03:25.712Z,99.99
2018-04-28T01:04:34.920Z,99.99
2018-04-28T01:05:44.388Z,99.99
2018-04-28T01:06:54.402Z,99.99
2018-04-28T01:08:03.934Z,99.99
2018-04-28T01:09:13.683Z,99.99
2018-04-28T01:10:23.157Z,99.99
2018-04-28T01:11:32.627Z,99.99
2018-04-28T01:12:42.630Z,99.99
2018-04-28T01:13:52.640Z,99.99
2018-04-28T01:15:02.644Z,99.99
2018-04-28T01:16:12.110Z,99.99
2018-04-28T01:17:22.216Z,99.99
2018-04-28T01:18:32.221Z,99.99
2018-04-28T01:19:41.962Z,99.99
2018-04-28T01:20:51.428Z,99.99
2018-04-28T01:22:01.432Z,99.99
2018-04-28T01:23:11.432Z,99.99
2018-04-28T01:24:21.177Z,99.99
2018-04-28T01:25:30.981Z,99.99
2018-04-28T01:26:40.723Z,99.99
2018-04-28T01:27:50.458Z,99.99
2018-04-28T01:29:00.465Z,99.99
2018-04-28T01:30:10.205Z,99.99
2018-04-28T01:31:19.940Z,99.99
2018-04-28T01:32:29.675Z,99.99
2018-04-28T01:33:39.678Z,99.99
2018-04-28T01:34:49.414Z,99.99
2018-04-28T01:35:58.615Z,99.99
2018-04-28T01:37:08.651Z,99.99
2018-04-28T01:38:18.652Z,99.99
2018-04-28T01:39:28.393Z,99.99
2018-04-28T01:40:38.401Z,99.99
2018-04-28T01:41:48.414Z,99.99
2018-04-28T01:42:58.420Z,99.99
2018-04-28T01:44:07.892Z,99.99
2018-04-28T01:45:17.368Z,99.99
2018-04-28T01:46:27.379Z,99.99
2018-04-28T01:47:37.380Z,99.99
2018-04-28T01:48:46.593Z,99.99
2018-04-28T01:49:56.332Z,99.99
2018-04-28T01:51:06.069Z,99.99
2018-04-28T01:52:16.092Z,99.99
2018-04-28T01:53:25.569Z,99.99
2018-04-28T01:54:35.038Z,99.99
2018-04-28T01:55:44.776Z,99.99
2018-04-28T01:56:54.248Z,99.99
2018-04-28T01:58:03.719Z,99.99
2018-04-28T01:59:13.460Z,99.99
2018-04-28T02:00:23.486Z,99.99
2018-04-28T02:01:33.236Z,99.99
2018-04-28T02:02:42.976Z,99.99
2018-04-28T02:03:52.984Z,99.99
2018-04-28T02:05:02.720Z,99.99
2018-04-28T02:06:12.193Z,99.99
2018-04-28T02:07:21.938Z,99.99
2018-04-28T02:08:31.687Z,99.99
2018-04-28T02:09:41.696Z,99.99
2018-04-28T02:10:51.707Z,99.99
2018-04-28T02:12:01.250Z,99.99
2018-04-28T02:13:11.276Z,99.99
2018-04-28T02:14:21.282Z,99.99
2018-04-28T02:15:31.138Z,99.99
2018-04-28T02:16:40.605Z,99.99
2018-04-28T02:17:49.810Z,99.99
2018-04-28T02:18:59.547Z,99.99
2018-04-28T02:20:09.281Z,99.99
2018-04-28T02:21:19.073Z,99.99
2018-04-28T02:22:28.817Z,99.99
2018-04-28T02:23:38.294Z,99.99
2018-04-28T02:24:48.031Z,99.99
2018-04-28T02:25:57.499Z,99.99
2018-04-28T02:27:07.255Z,99.99
2018-04-28T02:28:17.282Z,99.99
2018-04-28T02:29:26.749Z,99.99
2018-04-28T02:30:36.221Z,99.99
2018-04-28T02:31:46.005Z,99.99
2018-04-28T02:32:55.490Z,99.99
2018-04-28T02:34:05.493Z,99.99
2018-04-28T02:35:14.784Z,99.99
2018-04-28T02:36:24.534Z,99.99
2018-04-28T02:37:34.274Z,99.99
2018-04-28T02:38:44.305Z,99.99
2018-04-28T02:39:53.778Z,99.99
2018-04-28T02:41:03.255Z,99.99
2018-04-28T02:42:12.992Z,99.99
2018-04-28T02:43:22.995Z,99.99
2018-04-28T02:44:33.144Z,99.99
2018-04-28T02:45:42.901Z,99.99
2018-04-28T02:46:52.651Z,99.99
2018-04-28T02:48:02.660Z,99.99
2018-04-28T02:49:12.691Z,99.99
2018-04-28T02:50:22.705Z,99.99
2018-04-28T02:51:32.731Z,99.99
2018-04-28T02:52:42.474Z,99.99
2018-04-28T02:53:52.479Z,99.99
2018-04-28T02:55:01.957Z,99.99
2018-04-28T02:56:11.976Z,99.99
2018-04-28T02:57:21.718Z,99.99
2018-04-28T02:58:30.922Z,99.99
2018-04-28T02:59:40.936Z,99.99
2018-04-28T03:03:26.090Z,99.99
2018-04-28T03:04:35.592Z,99.99
2018-04-28T03:05:45.691Z,99.99
2018-04-28T03:06:55.428Z,99.99
2018-04-28T03:08:05.437Z,99.99
2018-04-28T03:09:14.915Z,99.99
2018-04-28T03:10:24.671Z,99.99
2018-04-28T03:11:34.680Z,99.99
2018-04-28T03:12:44.687Z,99.99
2018-04-28T03:13:54.694Z,99.99
2018-04-28T03:15:04.161Z,99.99
2018-04-28T03:16:13.644Z,99.99
2018-04-28T03:17:23.380Z,99.99
2018-04-28T03:18:33.111Z,99.99
2018-04-28T03:19:42.852Z,99.99
2018-04-28T03:20:52.320Z,99.99
2018-04-28T03:22:01.813Z,99.99
2018-04-28T03:23:11.284Z,99.99
2018-04-28T03:24:20.916Z,99.99
2018-04-28T03:25:31.177Z,99.99
2018-04-28T03:26:40.644Z,99.99
2018-04-28T03:27:50.375Z,99.99
2018-04-28T03:29:00.380Z,99.99
2018-04-28T03:30:10.123Z,99.99
2018-04-28T03:31:19.870Z,99.99
2018-04-28T03:32:29.876Z,99.99
2018-04-28T03:33:39.614Z,99.99
2018-04-28T03:34:49.624Z,99.99
2018-04-28T03:35:59.629Z,99.99
2018-04-28T03:37:09.375Z,99.99
2018-04-28T03:38:18.858Z,99.99
2018-04-28T03:39:28.601Z,99.99
2018-04-28T03:40:38.605Z,99.99
2018-04-28T03:41:48.605Z,99.99
2018-04-28T03:42:58.342Z,99.99
2018-04-28T03:44:08.355Z,99.99
2018-04-28T03:45:18.353Z,99.99
2018-04-28T03:46:27.832Z,99.99
2018-04-28T03:47:37.835Z,99.99
2018-04-28T03:48:47.850Z,99.99
2018-04-28T03:49:57.600Z,99.99
2018-04-28T03:51:07.605Z,99.99
2018-04-28T03:52:17.626Z,99.99
2018-04-28T03:53:27.686Z,99.99
2018-04-28T03:54:38.013Z,99.99
2018-04-28T03:55:47.766Z,99.99
2018-04-28T03:56:57.773Z,99.99
2018-04-28T03:58:07.248Z,99.99
2018-04-28T03:59:16.721Z,99.99
2018-04-28T04:00:26.724Z,99.99
2018-04-28T04:01:36.455Z,99.99
2018-04-28T04:02:46.473Z,99.99
2018-04-28T04:03:56.480Z,99.99
2018-04-28T04:05:06.211Z,99.99
2018-04-28T04:06:16.221Z,99.99
2018-04-28T04:07:26.223Z,99.99
2018-04-28T04:08:36.223Z,99.99
2018-04-28T04:09:46.298Z,99.99
2018-04-28T04:10:56.313Z,99.99
2018-04-28T04:12:05.781Z,99.99
2018-04-28T04:13:15.351Z,99.99
2018-04-28T04:14:25.349Z,99.99
2018-04-28T04:15:35.097Z,99.99
2018-04-28T04:16:45.102Z,99.99
2018-04-28T04:17:54.836Z,99.99
2018-04-28T04:19:04.582Z,99.99
2018-04-28T04:20:14.060Z,99.99
2018-04-28T04:21:23.797Z,99.99
2018-04-28T04:22:33.531Z,99.99
2018-04-28T04:23:43.271Z,99.99
2018-04-28T04:24:53.005Z,99.99
2018-04-28T04:26:03.094Z,99.99
2018-04-28T04:27:12.292Z,99.99
2018-04-28T04:28:21.758Z,99.99
2018-04-28T04:29:31.496Z,99.99
2018-04-28T04:30:41.511Z,99.99
2018-04-28T04:31:51.281Z,99.99
2018-04-28T04:33:00.548Z,99.99
2018-04-28T04:34:10.552Z,99.99
2018-04-28T04:35:20.560Z,99.99
2018-04-28T04:36:30.034Z,99.99
2018-04-28T04:37:40.140Z,99.99
2018-04-28T04:38:50.005Z,99.99
2018-04-28T04:39:59.551Z,99.99
2018-04-28T04:41:09.633Z,99.99
2018-04-28T04:42:19.687Z,99.99
2018-04-28T04:43:29.690Z,99.99
2018-04-28T04:44:39.507Z,99.99
2018-04-28T04:45:49.515Z,99.99
2018-04-28T04:46:58.984Z,99.99
2018-04-28T04:48:08.735Z,99.99
2018-04-28T04:49:18.749Z,99.99
2018-04-28T04:50:28.492Z,99.99
2018-04-28T04:51:38.592Z,99.99
2018-04-28T04:52:48.333Z,99.99
2018-04-28T04:53:58.336Z,99.99
2018-04-28T04:55:08.072Z,99.99
2018-04-28T04:56:17.811Z,99.99
2018-04-28T04:57:27.853Z,99.99
2018-04-28T04:58:37.593Z,99.99
2018-04-28T04:59:47.599Z,99.99
2018-04-28T05:00:57.334Z,99.99
2018-04-28T05:02:07.080Z,99.99
2018-04-28T05:03:16.821Z,99.99
2018-04-28T05:04:26.557Z,99.99
2018-04-28T05:05:36.023Z,99.99
2018-04-28T05:06:45.758Z,99.99
2018-04-28T05:07:55.496Z,99.99
2018-04-28T05:09:05.504Z,99.99
2018-04-28T05:10:15.245Z,99.99
2018-04-28T05:11:25.088Z,99.99
2018-04-28T05:12:34.557Z,99.99
2018-04-28T05:13:44.302Z,99.99
2018-04-28T05:14:54.044Z,99.52
2018-04-28T05:16:04.124Z,99.15
2018-04-28T05:17:13.522Z,99.01
2018-04-28T05:18:23.620Z,99.99
2018-04-28T05:19:33.621Z,99.99
2018-04-28T05:20:43.626Z,99.86
2018-04-28T05:21:53.626Z,99.99
2018-04-28T05:23:03.364Z,99.99
2018-04-28T05:24:13.371Z,99.99
2018-04-28T05:25:23.375Z,99.99
2018-04-28T05:26:33.378Z,99.99
2018-04-28T05:27:42.854Z,99.99
2018-04-28T05:28:52.599Z,99.99
2018-04-28T05:30:02.617Z,99.99
2018-04-28T05:31:12.624Z,99.99
2018-04-28T05:32:22.629Z,99.99
2018-04-28T05:33:32.630Z,99.99
2018-04-28T05:34:42.381Z,99.99
2018-04-28T05:35:52.542Z,99.99
2018-04-28T05:37:02.399Z,99.99
2018-04-28T05:38:12.145Z,99.99
2018-04-28T05:39:21.882Z,99.99
2018-04-28T05:40:31.615Z,99.99
2018-04-28T05:41:41.362Z,99.99
2018-04-28T05:42:51.098Z,99.99
2018-04-28T05:44:01.097Z,99.99
2018-04-28T05:45:11.100Z,99.99
2018-04-28T05:46:21.400Z,99.99
2018-04-28T05:47:31.135Z,99.99
2018-04-28T05:48:41.145Z,99.99
2018-04-28T05:49:51.158Z,99.99
2018-04-28T05:51:00.892Z,99.99
2018-04-28T05:52:10.440Z,99.99
2018-04-28T05:53:20.452Z,99.99
2018-04-28T05:54:30.459Z,99.99
2018-04-28T05:55:40.468Z,99.99
2018-04-28T05:56:49.938Z,99.99
2018-04-28T05:57:59.405Z,99.99
2018-04-28T05:59:09.417Z,99.99
2018-04-28T06:00:19.419Z,99.99
2018-04-28T06:01:29.213Z,99.99
2018-04-28T06:02:39.213Z,99.99
2018-04-28T06:03:48.957Z,99.99
2018-04-28T06:04:58.961Z,99.99
2018-04-28T06:06:08.166Z,99.99
2018-04-28T06:07:18.176Z,99.99
2018-04-28T06:08:27.928Z,99.99
2018-04-28T06:09:37.933Z,99.99
2018-04-28T06:10:47.941Z,99.99
2018-04-28T06:11:57.961Z,99.99
2018-04-28T06:13:07.161Z,99.99
2018-04-28T06:14:16.749Z,99.99
2018-04-28T06:15:26.752Z,99.99
2018-04-28T06:16:36.231Z,99.99
2018-04-28T06:17:45.699Z,99.99
2018-04-28T06:18:55.434Z,99.99
2018-04-28T06:20:04.951Z,99.99
2018-04-28T06:21:14.853Z,99.99
2018-04-28T06:22:24.852Z,99.99
2018-04-28T06:23:34.854Z,99.99
2018-04-28T06:24:44.324Z,99.99
2018-04-28T06:25:54.341Z,99.99
2018-04-28T06:27:04.621Z,99.99
2018-04-28T06:28:14.368Z,99.99
2018-04-28T06:29:24.381Z,99.99
2018-04-28T06:30:34.123Z,99.99
2018-04-28T06:31:43.873Z,99.99
2018-04-28T06:32:53.609Z,99.99
2018-04-28T06:34:03.679Z,99.99
2018-04-28T06:35:13.693Z,99.99
2018-04-28T06:36:23.769Z,99.99
2018-04-28T06:37:33.772Z,99.99
2018-04-28T06:38:43.777Z,99.99
2018-04-28T06:39:53.789Z,99.99
2018-04-28T06:41:03.545Z,99.99
2018-04-28T06:42:13.726Z,99.99
2018-04-28T06:43:23.749Z,99.99
2018-04-28T06:44:33.541Z,99.99
2018-04-28T06:45:43.543Z,99.99
2018-04-28T06:46:53.278Z,99.99
2018-04-28T06:48:03.022Z,99.99
2018-04-28T06:49:12.762Z,99.99
2018-04-28T06:50:22.765Z,99.99
2018-04-28T06:51:32.503Z,99.99
2018-04-28T06:52:42.240Z,99.99
2018-04-28T06:53:52.250Z,99.99
2018-04-28T06:55:01.991Z,99.99
2018-04-28T06:56:11.736Z,99.99
2018-04-28T06:57:21.750Z,99.99
2018-04-28T06:58:31.898Z,99.99
2018-04-28T06:59:42.192Z,99.99
2018-04-28T07:00:51.742Z,99.99
2018-04-28T07:02:01.758Z,99.99
2018-04-28T07:03:11.507Z,99.99
2018-04-28T07:04:21.244Z,99.99
2018-04-28T07:05:31.032Z,99.99
2018-04-28T07:06:40.802Z,99.99
2018-04-28T07:07:50.808Z,99.99
2018-04-28T07:09:00.812Z,99.2
2018-04-28T07:10:10.285Z,99.54
2018-04-28T07:11:20.297Z,99.73
2018-04-28T07:12:29.771Z,99.99
2018-04-28T07:13:39.778Z,99.99
2018-04-28T07:14:49.525Z,99.2
2018-04-28T07:15:59.532Z,99.77
2018-04-28T07:17:09.273Z,99.99
2018-04-28T07:18:19.286Z,99.99
2018-04-28T07:19:28.859Z,99.99
2018-04-28T07:20:38.888Z,99.99
2018-04-28T07:21:48.633Z,99.99
2018-04-28T07:22:58.639Z,99.49
2018-04-28T07:24:08.109Z,99.39
2018-04-28T07:25:17.589Z,99.99
2018-04-28T07:26:27.594Z,99.99
2018-04-28T07:27:37.064Z,99.99
2018-04-28T07:28:46.538Z,99.99
2018-04-28T07:29:56.543Z,99.99
2018-04-28T07:31:06.010Z,99.99
2018-04-28T07:32:15.754Z,99.87
2018-04-28T07:33:25.759Z,99.11
2018-04-28T07:34:35.558Z,98.25
2018-04-28T07:35:45.575Z,97.83
2018-04-28T07:36:55.052Z,96.88
2018-04-28T07:38:04.525Z,97.26
2018-04-28T07:39:14.265Z,96.41
2018-04-28T07:40:24.273Z,95.55
2018-04-28T07:41:34.012Z,94.89
2018-04-28T07:42:44.014Z,95.93
2018-04-28T07:43:54.025Z,95.93
2018-04-28T07:45:03.498Z,96.31
2018-04-28T07:46:13.241Z,95.74
2018-04-28T07:47:23.250Z,95.74
2018-04-28T07:48:33.261Z,95.31
2018-04-28T07:49:43.275Z,94.37
2018-04-28T07:50:53.291Z,94.37
2018-04-28T07:52:03.306Z,93.99
2018-04-28T07:53:13.048Z,93.8
2018-04-28T07:54:23.056Z,93.6
2018-04-28T07:55:32.836Z,92.85
2018-04-28T07:56:42.037Z,92.85
2018-04-28T07:57:51.778Z,93.51
2018-04-28T07:59:01.782Z,92.85
2018-04-28T08:00:11.521Z,92.56
2018-04-28T08:01:21.481Z,93.51
2018-04-28T08:02:31.491Z,93.23
2018-04-28T08:03:41.230Z,92.85
2018-04-28T08:04:51.248Z,92.37
2018-04-28T08:06:01.263Z,92.47
2018-04-28T08:07:11.175Z,92.47
2018-04-28T08:08:21.185Z,92.66
2018-04-28T08:09:31.205Z,91.89
2018-04-28T08:10:41.213Z,92.56
2018-04-28T08:11:50.785Z,92.28
2018-04-28T08:13:00.803Z,92.18
2018-04-28T08:14:10.271Z,91.8
2018-04-28T08:15:20.194Z,91.61
2018-04-28T08:16:29.934Z,91.71
2018-04-28T08:17:39.671Z,91.52
2018-04-28T08:18:49.679Z,91.28
2018-04-28T08:19:59.693Z,91.14
2018-04-28T08:21:09.162Z,91.38
2018-04-28T08:22:18.897Z,91.33
2018-04-28T08:23:28.915Z,91.47
2018-04-28T08:24:38.387Z,91.14
2018-04-28T08:25:48.128Z,90.99
2018-04-28T08:26:58.139Z,90.71
2018-04-28T08:28:07.881Z,90.8
2018-04-28T08:29:17.356Z,90.52
2018-04-28T08:30:27.363Z,89.57
2018-04-28T08:31:37.372Z,90.14
2018-04-28T08:32:47.113Z,89.76
2018-04-28T08:33:57.122Z,89.76
2018-04-28T08:35:06.595Z,89.67
2018-04-28T08:36:16.331Z,89.57
2018-04-28T08:37:26.518Z,89.28
2018-04-28T08:38:36.008Z,89.86
2018-04-28T08:39:45.830Z,89.28
2018-04-28T08:40:55.570Z,89.95
2018-04-28T08:42:05.315Z,89.47
2018-04-28T08:43:15.054Z,88.62
2018-04-28T08:44:25.061Z,88.81
2018-04-28T08:45:34.943Z,88.24
2018-04-28T08:46:45.152Z,88.34
2018-04-28T08:47:55.162Z,87.71
2018-04-28T08:49:04.909Z,87.43
2018-04-28T08:50:14.651Z,87.24
2018-04-28T08:51:24.666Z,87.24
2018-04-28T08:52:34.675Z,87.81
2018-04-28T08:53:44.421Z,86.95
2018-04-28T08:54:54.430Z,87.24
2018-04-28T08:56:03.904Z,86.29
2018-04-28T08:57:13.640Z,86.1
2018-04-28T08:58:23.650Z,86.47
2018-04-28T08:59:33.392Z,86.38
2018-04-28T09:00:43.139Z,86.29
2018-04-28T09:01:53.147Z,86.38
2018-04-28T09:03:02.902Z,86.76
2018-04-28T09:04:12.377Z,87.24
2018-04-28T09:05:21.853Z,87.71
2018-04-28T09:06:31.863Z,87.62
2018-04-28T09:07:41.880Z,87.81
2018-04-28T09:08:51.895Z,87.9
2018-04-28T09:10:01.908Z,87.9
2018-04-28T09:11:11.927Z,87.43
2018-04-28T09:12:21.716Z,86.76
2018-04-28T09:13:31.464Z,86.1
2018-04-28T09:14:41.204Z,86.1
2018-04-28T09:15:50.949Z,85.81
2018-04-28T09:17:01.030Z,85.15
2018-04-28T09:18:10.510Z,85.81
2018-04-28T09:19:20.295Z,85.62
2018-04-28T09:20:29.591Z,85.91
2018-04-28T09:21:39.064Z,85.91
2018-04-28T09:22:48.009Z,85.53
2018-04-28T09:23:57.482Z,85.53
2018-04-28T09:25:07.229Z,85.05
2018-04-28T09:26:16.740Z,85.62
2018-04-28T09:27:26.679Z,85.1
2018-04-28T09:28:35.882Z,85.66
2018-04-28T09:29:45.363Z,85.76
2018-04-28T09:30:54.850Z,85.62
2018-04-28T09:32:04.593Z,85.91
2018-04-28T09:33:14.335Z,86
2018-04-28T09:34:24.347Z,86
2018-04-28T09:35:34.354Z,85.53
2018-04-28T09:36:44.099Z,85.53
2018-04-28T09:37:54.108Z,85.15
2018-04-28T09:39:03.583Z,85.47
2018-04-28T09:40:13.324Z,85
2018-04-28T09:41:23.328Z,85.15
2018-04-28T09:42:32.803Z,85.24
2018-04-28T09:43:42.812Z,85.66
2018-04-28T09:44:52.618Z,85.53
2018-04-28T09:46:02.643Z,85.15
2018-04-28T09:47:12.383Z,85.72
2018-04-28T09:48:22.395Z,85.15
2018-04-28T09:49:32.137Z,86.38
2018-04-28T09:50:42.142Z,86.19
2018-04-28T09:51:52.239Z,86.29
2018-04-28T09:53:02.334Z,86.29
2018-04-28T09:54:12.152Z,86.19
2018-04-28T09:55:22.166Z,86.1
2018-04-28T09:56:32.182Z,85.81
2018-04-28T09:57:42.189Z,86
2018-04-28T09:58:51.928Z,85.81
2018-04-28T10:00:01.810Z,84.86
2018-04-28T10:01:11.021Z,85.86
2018-04-28T10:02:20.278Z,85.57
2018-04-28T10:03:30.022Z,85.28
2018-04-28T10:04:40.031Z,85.19
2018-04-28T10:05:49.854Z,85
2018-04-28T10:07:00.118Z,84.62
2018-04-28T10:08:09.595Z,84.24
2018-04-28T10:09:19.608Z,84.05
2018-04-28T10:10:29.359Z,84.33
2018-04-28T10:11:39.382Z,84.24
2018-04-28T10:12:49.526Z,83.62
2018-04-28T10:13:59.351Z,83.04
2018-04-28T10:15:08.558Z,82.95
2018-04-28T10:16:18.568Z,82.28
2018-04-28T10:17:28.576Z,82.48
2018-04-28T10:18:38.322Z,81.9
2018-04-28T10:19:47.901Z,81.43
2018-04-28T10:20:57.916Z,80.61
2018-04-28T10:22:07.396Z,80.33
2018-04-28T10:23:17.402Z,80.71
2018-04-28T10:24:27.505Z,80.13
2018-04-28T10:25:37.246Z,80.23
2018-04-28T10:26:46.992Z,80.13
2018-04-28T10:27:57.000Z,80.23
2018-04-28T10:29:07.017Z,79.47
2018-04-28T10:30:17.038Z,79.57
2018-04-28T10:31:27.044Z,78.99
2018-04-28T10:32:36.521Z,79.09
2018-04-28T10:33:46.005Z,79.41
2018-04-28T10:34:55.753Z,79.32
2018-04-28T10:36:05.501Z,78.37
2018-04-28T10:37:14.709Z,78.46
2018-04-28T10:38:24.768Z,78.37
2018-04-28T10:39:34.508Z,78.46
2018-04-28T10:40:43.993Z,78.17
2018-04-28T10:41:53.737Z,78.08
2018-04-28T10:43:03.208Z,77.7
2018-04-28T10:44:12.945Z,77.61
2018-04-28T10:45:22.958Z,76.65
2018-04-28T10:46:32.701Z,76.65
2018-04-28T10:47:42.441Z,76.84
2018-04-28T10:48:52.505Z,76.75
2018-04-28T10:50:02.512Z,76.79
2018-04-28T10:51:12.539Z,76.65
2018-04-28T10:52:22.298Z,76.79
2018-04-28T10:53:32.114Z,76.5
2018-04-28T10:54:42.219Z,76.59
2018-04-28T10:55:51.964Z,76.59
2018-04-28T10:57:01.984Z,76.03
2018-04-28T10:58:12.005Z,75.26
2018-04-28T10:59:21.807Z,75.64
2018-04-28T11:00:31.550Z,75.45
2018-04-28T11:01:41.302Z,74.88
2018-04-28T11:02:51.327Z,75.74
2018-04-28T11:04:01.103Z,74.88
2018-04-28T11:05:11.116Z,75.36
2018-04-28T11:06:21.283Z,75.16
2018-04-28T11:07:31.386Z,74.5
2018-04-28T11:08:41.126Z,74.02
2018-04-28T11:09:51.145Z,74.92
2018-04-28T11:11:01.159Z,74.63
2018-04-28T11:12:10.905Z,73.96
2018-04-28T11:13:20.191Z,73.96
2018-04-28T11:14:30.045Z,74.06
2018-04-28T11:15:39.521Z,73.68
2018-04-28T11:16:49.545Z,74.16
2018-04-28T11:17:59.560Z,74.25
2018-04-28T11:19:09.085Z,73.77
2018-04-28T11:20:18.835Z,73.68
2018-04-28T11:21:28.580Z,73.58
2018-04-28T11:22:38.325Z,73.01
2018-04-28T11:23:48.172Z,73.01
2018-04-28T11:24:57.992Z,72.63
2018-04-28T11:26:08.006Z,72.19
2018-04-28T11:27:18.020Z,72.67
2018-04-28T11:28:27.229Z,72.19
2018-04-28T11:29:36.974Z,71.96
2018-04-28T11:30:46.982Z,72.34
2018-04-28T11:31:56.995Z,73.3
2018-04-28T11:33:06.734Z,74.06
2018-04-28T11:34:16.212Z,74.6
2018-04-28T11:35:25.689Z,74.69
2018-04-28T11:36:35.434Z,74.84
2018-04-28T11:37:45.174Z,75.13
2018-04-28T11:38:55.199Z,75.7
2018-04-28T11:40:04.950Z,76.18
2018-04-28T11:41:14.692Z,76.37
2018-04-28T11:42:24.432Z,76.65
2018-04-28T11:43:34.503Z,76.46
2018-04-28T11:44:43.668Z,76.46
2018-04-28T11:45:53.146Z,75.7
2018-04-28T11:47:02.918Z,75.26
2018-04-28T11:48:12.398Z,74.88
2018-04-28T11:49:22.420Z,74.79
2018-04-28T11:50:32.439Z,74.69
2018-04-28T11:51:42.186Z,74.06
2018-04-28T11:52:52.198Z,73.96
2018-04-28T11:54:01.938Z,73.21
2018-04-28T11:55:11.685Z,72.92
2018-04-28T11:56:21.432Z,72.92
2018-04-28T11:57:31.472Z,72.48
2018-04-28T11:58:41.218Z,72.28
2018-04-28T11:59:51.302Z,71.43
2018-04-28T12:01:01.048Z,70.95
2018-04-28T12:02:10.798Z,70.95
2018-04-28T12:03:20.809Z,70.76
2018-04-28T12:04:30.553Z,70.42
2018-04-28T12:05:39.840Z,69.74
2018-04-28T12:06:49.791Z,69.27
2018-04-28T12:07:59.267Z,69.37
2018-04-28T12:09:08.741Z,70
2018-04-28T12:10:18.750Z,70.13
2018-04-28T12:11:28.226Z,69.46
2018-04-28T12:12:38.049Z,68.51
2018-04-28T12:13:48.293Z,69.08
2018-04-28T12:14:58.393Z,67.21
2018-04-28T12:16:08.422Z,67.87
2018-04-28T12:17:18.440Z,68.03
2018-04-28T12:18:28.450Z,67.46
2018-04-28T12:19:38.198Z,68.44
2018-04-28T12:20:48.216Z,68.06
2018-04-28T12:21:58.049Z,66.92
2018-04-28T12:23:07.533Z,67.01
2018-04-28T12:24:17.289Z,66.72
2018-04-28T12:25:26.781Z,66.66
2018-04-28T12:26:36.794Z,66
2018-04-28T12:27:47.161Z,65.36
2018-04-28T12:28:56.921Z,64.43
2018-04-28T12:30:06.600Z,63.19
2018-04-28T12:31:15.983Z,63.6
2018-04-28T12:32:25.733Z,62.74
2018-04-28T12:33:35.217Z,61.82
2018-04-28T12:34:45.235Z,61.63
2018-04-28T12:35:55.378Z,60.86
2018-04-28T12:37:05.394Z,60.22
2018-04-28T12:38:15.496Z,59.43
2018-04-28T12:39:25.509Z,60.38
2018-04-28T12:40:35.566Z,60.77
2018-04-28T12:41:45.587Z,59.62
2018-04-28T12:42:55.376Z,60.58
2018-04-28T12:44:04.860Z,60.29
2018-04-28T12:45:14.870Z,60.29
2018-04-28T12:46:24.617Z,60.35
2018-04-28T12:47:33.830Z,60.45
2018-04-28T12:48:43.849Z,60.61
2018-04-28T12:49:53.593Z,60.55
2018-04-28T12:51:03.344Z,60.26
2018-04-28T12:52:13.094Z,59.01
2018-04-28T12:53:23.112Z,59.4
2018-04-28T12:54:32.862Z,59.78
2018-04-28T12:55:42.609Z,59.49
2018-04-28T12:56:52.407Z,60.26
2018-04-28T12:58:02.443Z,60.16
2018-04-28T12:59:12.458Z,59.69
2018-04-28T13:00:22.473Z,59.05
2018-04-28T13:01:32.221Z,58.34
2018-04-28T13:02:42.238Z,60.13
2018-04-28T13:03:51.722Z,61.09
2018-04-28T13:05:01.734Z,60.8
2018-04-28T13:06:11.998Z,61.92
2018-04-28T13:07:22.113Z,62.65
2018-04-28T13:08:31.862Z,62.46
2018-04-28T13:09:41.873Z,62.75
2018-04-28T13:10:51.624Z,63.42
2018-04-28T13:12:01.384Z,63.96
2018-04-28T13:13:11.139Z,63.8
2018-04-28T13:14:20.995Z,63.89
2018-04-28T13:15:31.013Z,63.7
2018-04-28T13:16:41.032Z,62.84
2018-04-28T13:17:51.056Z,62.68
2018-04-28T13:19:01.073Z,62.01
2018-04-28T13:20:10.828Z,60.77
2018-04-28T13:21:20.853Z,59.84
2018-04-28T13:22:30.606Z,60.16
2018-04-28T13:23:40.649Z,59.11
2018-04-28T13:24:50.660Z,58.34
2018-04-28T13:26:00.409Z,58.47
2018-04-28T13:27:10.432Z,58.34
2018-04-28T13:28:19.912Z,58.83
2018-04-28T13:29:28.865Z,57.58
2018-04-28T13:30:38.620Z,57.48
2018-04-28T13:31:48.627Z,57.97
2018-04-28T13:32:58.377Z,57.87
2018-04-28T13:34:07.859Z,57.97
2018-04-28T13:35:17.615Z,57.68
2018-04-28T13:36:27.362Z,57.87
2018-04-28T13:37:37.112Z,57.77
2018-04-28T13:38:46.596Z,57.97
2018-04-28T13:39:56.613Z,57.77
2018-04-28T13:41:06.479Z,57.32
2018-04-28T13:42:16.120Z,57.32
2018-04-28T13:43:25.605Z,56.65
2018-04-28T13:44:35.620Z,57.51
2018-04-28T13:45:45.629Z,56.65
2018-04-28T13:46:55.642Z,55.63
2018-04-28T13:48:05.389Z,54.28
2018-04-28T13:49:15.581Z,55.15
2018-04-28T13:50:25.075Z,54.5
2018-04-28T13:51:34.551Z,54.41
2018-04-28T13:52:44.567Z,54.32
2018-04-28T13:53:54.316Z,55.69
2018-04-28T13:55:04.066Z,57.87
2018-04-28T13:56:13.550Z,59.56
2018-04-28T13:57:23.570Z,60.01
2018-04-28T13:58:33.316Z,61.51
2018-04-28T13:59:43.339Z,62.55
2018-04-28T14:00:53.353Z,63.73
2018-04-28T14:02:03.102Z,65.93
2018-04-28T14:03:12.583Z,66.6
2018-04-28T14:04:22.603Z,65.99
2018-04-28T14:05:32.356Z,65.26
2018-04-28T14:06:42.107Z,67.14
2018-04-28T14:07:51.861Z,67.14
2018-04-28T14:09:01.884Z,67.42
2018-04-28T14:10:11.639Z,69.23
2018-04-28T14:11:21.393Z,69.96
2018-04-28T14:12:31.137Z,69.48
2018-04-28T14:13:41.155Z,69.17
2018-04-28T14:14:51.165Z,69.45
2018-04-28T14:16:00.381Z,70.97
2018-04-28T14:17:09.597Z,70.75
2018-04-28T14:18:19.631Z,70.21
2018-04-28T14:19:29.657Z,69.93
2018-04-28T14:20:39.674Z,70.21
2018-04-28T14:21:49.428Z,69.17
2018-04-28T14:22:59.181Z,69.58
2018-04-28T14:24:09.031Z,68.24
2018-04-28T14:25:18.781Z,67.48
2018-04-28T14:26:28.582Z,66.91
2018-04-28T14:27:38.061Z,65.52
2018-04-28T14:28:47.541Z,64.4
2018-04-28T14:29:57.286Z,63.67
2018-04-28T14:31:07.032Z,62.55
2018-04-28T14:32:16.508Z,61.6
2018-04-28T14:33:25.993Z,60.64
2018-04-28T14:34:36.017Z,59.53
2018-04-28T14:35:46.043Z,58.8
2018-04-28T14:36:55.794Z,57.75
2018-04-28T14:38:05.821Z,57.87
2018-04-28T14:39:15.836Z,55.98
2018-04-28T14:40:25.881Z,57.32
2018-04-28T14:41:35.910Z,55.98
2018-04-28T14:42:45.937Z,53.52
2018-04-28T14:43:55.955Z,52.2
2018-04-28T14:45:05.700Z,54.19
2018-04-28T14:46:15.835Z,54.19
2018-04-28T14:47:25.963Z,52.69
2018-04-28T14:48:35.712Z,52.52
2018-04-28T14:49:45.200Z,51.4
2018-04-28T14:50:54.945Z,50.46
2018-04-28T14:52:04.706Z,50.17
2018-04-28T14:53:14.455Z,48.85
2018-04-28T14:54:23.939Z,49.31
2018-04-28T14:55:33.703Z,50.92
2018-04-28T14:56:43.725Z,54.7
2018-04-28T14:57:53.749Z,57.1
2018-04-28T14:59:03.873Z,58.7
2018-04-28T15:00:13.634Z,61.63
2018-04-28T15:01:23.791Z,63.57
2018-04-28T15:02:33.816Z,64.88
2018-04-28T15:03:43.839Z,64.12